createdAt,value
2023-04-16T09:29:38.259Z,8.38
2023-04-16T15:21:12.562Z,8.60
2023-04-16T15:24:11.281Z,8.65
2023-04-16T15:27:12.739Z,8.64
2023-04-16T15:47:26.930Z,8.55
2023-04-16T15:49:54.655Z,8.56
2023-04-16T15:52:22.530Z,8.53
2023-04-16T15:55:07.018Z,8.52
2023-04-16T15:57:37.197Z,8.49
2023-04-16T16:00:31.294Z,8.47
2023-04-16T16:03:05.825Z,8.46
2023-04-16T16:08:13.994Z,8.44
2023-04-16T16:13:37.330Z,8.50
2023-04-16T16:16:04.679Z,8.49
2023-04-16T16:18:32.049Z,8.48
2023-04-16T16:26:23.252Z,8.44
2023-04-16T16:28:51.458Z,8.43
2023-04-16T16:34:06.885Z,8.43
2023-04-16T16:36:37.006Z,8.43
2023-04-16T16:44:30.066Z,8.34
2023-04-16T18:25:48.784Z,7.94
2023-04-16T18:28:15.847Z,7.93
2023-04-16T18:30:42.882Z,7.93
2023-04-16T18:35:40.644Z,7.87
2023-04-16T18:38:07.766Z,7.90
2023-04-16T18:40:35.109Z,7.92
2023-04-16T18:43:03.282Z,7.93
2023-04-16T18:45:30.232Z,7.89
2023-04-16T18:47:59.000Z,7.88
2023-04-16T18:50:26.260Z,7.90
2023-04-16T18:52:53.778Z,7.93
2023-04-16T18:55:20.545Z,7.97
2023-04-16T18:57:47.232Z,8.00
2023-04-16T19:00:16.347Z,8.03
2023-04-16T19:02:43.551Z,8.03
2023-04-16T19:05:10.566Z,8.05
2023-04-16T19:07:37.702Z,8.07
2023-04-16T19:10:06.267Z,8.04
2023-04-16T19:12:33.124Z,7.97
2023-04-16T19:15:00.227Z,7.93
2023-04-16T19:17:28.540Z,7.90
2023-04-16T19:19:55.431Z,7.87
2023-04-16T19:22:25.330Z,7.84
2023-04-16T19:24:52.394Z,7.83
2023-04-16T19:27:19.408Z,7.80
2023-04-16T19:29:46.841Z,7.77
2023-04-16T19:32:14.573Z,7.75
2023-04-16T19:34:42.760Z,7.73
2023-04-16T19:37:09.560Z,7.72
2023-04-16T19:39:36.602Z,7.68
2023-04-16T19:42:04.290Z,7.66
2023-04-16T19:44:32.407Z,7.67
2023-04-16T19:46:59.392Z,7.68
2023-04-16T19:49:33.759Z,7.73
2023-04-16T19:52:04.335Z,7.73
2023-04-16T19:54:33.551Z,7.72
2023-04-16T19:57:01.404Z,7.70
2023-04-16T19:59:32.592Z,7.71
2023-04-16T20:01:59.831Z,7.71
2023-04-16T20:04:26.776Z,7.74
2023-04-16T20:06:53.825Z,7.76
2023-04-16T20:09:22.104Z,7.75
2023-04-16T20:11:49.124Z,7.73
2023-04-16T20:14:15.917Z,7.77
2023-04-16T20:16:43.650Z,7.82
2023-04-16T20:19:10.853Z,7.87
2023-04-16T20:21:37.856Z,7.87
2023-04-16T20:24:06.638Z,7.91
2023-04-16T20:26:36.600Z,7.95
2023-04-16T20:29:03.320Z,7.92
2023-04-16T20:31:30.372Z,7.90
2023-04-16T20:33:57.411Z,7.89
2023-04-16T20:36:24.494Z,7.89
2023-04-16T20:38:53.734Z,7.87
2023-04-16T20:41:21.315Z,7.84
2023-04-16T20:43:50.289Z,7.81
2023-04-16T20:46:17.764Z,7.77
2023-04-16T20:48:44.613Z,7.76
2023-04-16T20:51:12.841Z,7.75
2023-04-16T20:53:41.372Z,7.73
2023-04-16T20:56:09.186Z,7.73
2023-04-16T20:58:36.748Z,7.75
2023-04-16T21:01:05.967Z,7.76
2023-04-16T21:03:32.853Z,7.78
2023-04-16T21:06:02.109Z,7.81
2023-04-16T21:08:29.213Z,7.86
2023-04-16T21:10:57.546Z,7.91
2023-04-16T21:13:24.444Z,7.94
2023-04-16T21:15:52.081Z,7.94
2023-04-16T21:18:20.861Z,7.94
2023-04-16T21:20:47.800Z,7.93
2023-04-16T21:23:14.693Z,7.90
2023-04-16T21:25:41.402Z,7.94
2023-04-16T21:28:08.227Z,7.96
2023-04-16T21:30:35.291Z,7.99
2023-04-16T21:33:02.096Z,8.04
2023-04-16T21:35:31.516Z,8.05
2023-04-16T21:37:58.270Z,8.06
2023-04-16T21:40:24.922Z,8.07
2023-04-16T21:42:55.498Z,8.07
2023-04-16T21:45:22.115Z,8.06
2023-04-16T21:47:48.940Z,8.06
2023-04-16T21:50:15.924Z,8.05
2023-04-16T21:52:46.833Z,8.04
2023-04-16T21:55:14.422Z,8.01
2023-04-16T21:57:41.330Z,8.00
2023-04-16T22:00:14.119Z,8.00
2023-04-16T22:05:11.028Z,8.04
2023-04-16T22:07:37.872Z,8.03
2023-04-16T22:10:09.015Z,8.02
2023-04-16T22:12:39.840Z,8.01
2023-04-16T22:15:08.228Z,8.00
2023-04-16T22:17:35.163Z,8.00
2023-04-16T22:20:05.244Z,7.98
2023-04-16T22:22:31.933Z,7.94
2023-04-16T22:24:58.858Z,7.91
2023-04-16T22:27:27.364Z,7.88
2023-04-16T22:29:54.553Z,7.81
2023-04-16T22:32:22.234Z,7.74
2023-04-16T22:34:49.183Z,7.70
2023-04-16T22:37:16.373Z,7.71
2023-04-16T22:39:43.486Z,7.75
2023-04-16T22:42:12.869Z,7.76
2023-04-16T22:44:41.333Z,7.81
2023-04-16T22:47:08.082Z,7.82
2023-04-16T22:49:35.060Z,7.88
2023-04-16T22:52:02.834Z,7.93
2023-04-16T22:54:29.695Z,7.92
2023-04-16T22:56:56.786Z,7.90
2023-04-16T22:59:23.547Z,7.86
2023-04-16T23:01:52.218Z,7.81
2023-04-16T23:04:19.182Z,7.78
2023-04-16T23:06:46.345Z,7.77
2023-04-16T23:09:13.545Z,7.78
2023-04-16T23:11:40.742Z,7.80
2023-04-16T23:14:08.610Z,7.80
2023-04-16T23:16:35.839Z,7.81
2023-04-16T23:19:04.129Z,7.83
2023-04-16T23:21:31.555Z,7.84
2023-04-16T23:23:59.081Z,7.84
2023-04-16T23:26:25.820Z,7.85
2023-04-16T23:28:52.516Z,7.87
2023-04-16T23:31:19.210Z,7.91
2023-04-16T23:33:46.420Z,7.91
2023-04-16T23:36:14.622Z,7.86
2023-04-16T23:38:41.398Z,7.83
2023-04-16T23:41:10.770Z,7.81
2023-04-16T23:43:40.047Z,7.80
2023-04-16T23:46:06.804Z,7.74
2023-04-16T23:48:33.693Z,7.70
2023-04-16T23:51:01.262Z,7.67
2023-04-16T23:53:29.322Z,7.66
2023-04-16T23:55:56.139Z,7.63
2023-04-16T23:58:22.802Z,7.60
